Wetterdaten: Dienstag, 11.11.2014
Datum Zeit Temp. A. Feuchte A. Luftdruck Regen Wind Richtung Richtung Sonnenschein ET UV Solar Taupunkt Windchill Windben Empfang
11.11.2014 00:00 7,1 C 85 % 1012,8 hPa 0,0 l/m 0,0 km/h (0 Bft) S-SO 167 0 min 0,000 mm 0,0 UV-I 0 W/m 4,8 C 7,1 C 0,0 km/h (0 Bft) 0,00 %
11.11.2014 00:15 7,1 C 85 % 1012,9 hPa 0,0 l/m 0,0 km/h (0 Bft) S-SO 167 0 min 0,000 mm 0,0 UV-I 0 W/m 4,8 C 7,1 C 0,0 km/h (0 Bft) 0,00 %
11.11.2014 00:30 7,1 C 85 % 1012,8 hPa 0,0 l/m 0,0 km/h (0 Bft) W-SW 256 0 min 0,000 mm 0,0 UV-I 0 W/m 4,8 C 7,1 C 0,0 km/h (0 Bft) 0,00 %
11.11.2014 00:45 7,0 C 84 % 1012,7 hPa 0,0 l/m 0,0 km/h (0 Bft) W-NW 299 0 min 0,000 mm 0,0 UV-I 0 W/m 4,5 C 7,0 C 0,0 km/h (0 Bft) 0,00 %
11.11.2014 01:00 6,8 C 84 % 1013,0 hPa 0,0 l/m 0,0 km/h (0 Bft) S 171 0 min 0,000 mm 0,0 UV-I 0 W/m 4,3 C 6,8 C 0,0 km/h (0 Bft) 0,00 %
11.11.2014 01:15 7,0 C 84 % 1012,6 hPa 0,0 l/m 0,0 km/h (0 Bft) S 173 0 min 0,000 mm 0,0 UV-I 0 W/m 4,5 C 7,0 C 0,0 km/h (0 Bft) 0,00 %
11.11.2014 01:30 6,9 C 83 % 1012,8 hPa 0,0 l/m 0,0 km/h (0 Bft) N-NW 331 0 min 0,000 mm 0,0 UV-I 0 W/m 4,2 C 6,9 C 0,0 km/h (0 Bft) 0,00 %
11.11.2014 01:45 6,9 C 83 % 1012,6 hPa 0,0 l/m 0,0 km/h (0 Bft) SO 137 0 min 0,000 mm 0,0 UV-I 0 W/m 4,2 C 6,9 C 0,0 km/h (0 Bft) 0,00 %
11.11.2014 02:00 7,0 C 83 % 1012,4 hPa 0,0 l/m 0,0 km/h (0 Bft) SO 142 0 min 0,000 mm 0,0 UV-I 0 W/m 4,3 C 7,0 C 0,0 km/h (0 Bft) 0,00 %
11.11.2014 02:15 7,0 C 83 % 1012,6 hPa 0,0 l/m 0,0 km/h (0 Bft) S-SO 161 0 min 0,000 mm 0,0 UV-I 0 W/m 4,3 C 7,0 C 0,0 km/h (0 Bft) 0,00 %
11.11.2014 02:30 7,0 C 83 % 1012,4 hPa 0,0 l/m 0,4 km/h (0 Bft) SO 135 0 min 0,000 mm 0,0 UV-I 0 W/m 4,3 C 7,0 C 4,0 km/h (1 Bft) 0,00 %
11.11.2014 02:45 7,0 C 83 % 1012,4 hPa 0,0 l/m 0,0 km/h (0 Bft) S 173 0 min 0,000 mm 0,0 UV-I 0 W/m 4,3 C 7,0 C 0,0 km/h (0 Bft) 0,00 %
11.11.2014 03:00 7,0 C 83 % 1012,7 hPa 0,0 l/m 0,0 km/h (0 Bft) SO 135 0 min 0,000 mm 0,0 UV-I 0 W/m 4,3 C 7,0 C 0,0 km/h (0 Bft) 0,00 %
11.11.2014 03:15 6,9 C 83 % 1012,3 hPa 0,0 l/m 0,0 km/h (0 Bft) S 183 0 min 0,000 mm 0,0 UV-I 0 W/m 4,2 C 6,9 C 0,0 km/h (0 Bft) 0,00 %
11.11.2014 03:30 6,9 C 83 % 1012,4 hPa 0,0 l/m 0,0 km/h (0 Bft) S 172 0 min 0,000 mm 0,0 UV-I 0 W/m 4,2 C 6,9 C 0,0 km/h (0 Bft) 0,00 %
11.11.2014 03:45 7,0 C 83 % 1012,1 hPa 0,0 l/m 2,2 km/h (1 Bft) O-SO 107 0 min 0,000 mm 0,0 UV-I 0 W/m 4,3 C 7,0 C 4,0 km/h (1 Bft) 0,00 %
11.11.2014 04:00 7,0 C 83 % 1012,0 hPa 0,0 l/m 0,0 km/h (0 Bft) S 182 0 min 0,000 mm 0,0 UV-I 0 W/m 4,3 C 7,0 C 0,0 km/h (0 Bft) 0,00 %
11.11.2014 04:15 7,0 C 83 % 1011,8 hPa 0,0 l/m 0,0 km/h (0 Bft) O 97 0 min 0,000 mm 0,0 UV-I 0 W/m 4,3 C 7,0 C 0,0 km/h (0 Bft) 0,00 %
11.11.2014 04:30 7,0 C 83 % 1012,1 hPa 0,0 l/m 0,4 km/h (0 Bft) SO 140 0 min 0,000 mm 0,0 UV-I 0 W/m 4,3 C 7,0 C 4,0 km/h (1 Bft) 0,00 %
11.11.2014 04:45 7,0 C 83 % 1012,1 hPa 0,0 l/m 0,0 km/h (0 Bft) O 80 0 min 0,000 mm 0,0 UV-I 0 W/m 4,3 C 7,0 C 0,0 km/h (0 Bft) 0,00 %
11.11.2014 05:00 7,0 C 83 % 1011,8 hPa 0,0 l/m 2,9 km/h (1 Bft) SO 129 0 min 0,000 mm 0,0 UV-I 0 W/m 4,3 C 7,0 C 4,0 km/h (1 Bft) 0,00 %
11.11.2014 05:15 7,0 C 84 % 1011,5 hPa 0,0 l/m 0,0 km/h (0 Bft) O-SO 107 0 min 0,000 mm 0,0 UV-I 0 W/m 4,5 C 7,0 C 0,0 km/h (0 Bft) 0,00 %
11.11.2014 05:30 7,0 C 84 % 1011,5 hPa 0,0 l/m 1,4 km/h (1 Bft) O-SO 109 0 min 0,000 mm 0,0 UV-I 0 W/m 4,5 C 7,0 C 4,0 km/h (1 Bft) 0,00 %
11.11.2014 05:45 7,1 C 84 % 1011,5 hPa 0,0 l/m 0,0 km/h (0 Bft) W-SW 253 0 min 0,000 mm 0,0 UV-I 0 W/m 4,6 C 7,1 C 0,0 km/h (0 Bft) 0,00 %
11.11.2014 06:00 7,2 C 84 % 1011,5 hPa 0,0 l/m 0,0 km/h (0 Bft) O-SO 120 0 min 0,000 mm 0,0 UV-I 0 W/m 4,7 C 7,2 C 0,0 km/h (0 Bft) 0,00 %
11.11.2014 06:15 7,2 C 84 % 1011,5 hPa 0,0 l/m 0,0 km/h (0 Bft) O-SO 109 0 min 0,000 mm 0,0 UV-I 0 W/m 4,7 C 7,2 C 0,0 km/h (0 Bft) 0,00 %
11.11.2014 06:30 7,2 C 84 % 1011,4 hPa 0,0 l/m 0,0 km/h (0 Bft) S-SW 197 0 min 0,000 mm 0,0 UV-I 0 W/m 4,7 C 7,2 C 0,0 km/h (0 Bft) 0,00 %
11.11.2014 06:45 7,3 C 85 % 1011,4 hPa 0,0 l/m 1,4 km/h (1 Bft) O 90 0 min 0,000 mm 0,0 UV-I 0 W/m 4,9 C 7,3 C 4,0 km/h (1 Bft) 0,00 %
11.11.2014 07:00 7,4 C 85 % 1011,4 hPa 0,0 l/m 0,7 km/h (0 Bft) O-NO 64 0 min 0,000 mm 0,0 UV-I 0 W/m 5,0 C 7,4 C 4,0 km/h (1 Bft) 0,00 %
11.11.2014 07:15 7,4 C 85 % 1011,3 hPa 0,0 l/m 0,4 km/h (0 Bft) W-SW 251 0 min 0,000 mm 0,0 UV-I 0 W/m 5,0 C 7,4 C 4,0 km/h (1 Bft) 0,00 %
11.11.2014 07:30 7,5 C 85 % 1011,4 hPa 0,0 l/m 0,4 km/h (0 Bft) SO 136 0 min 0,000 mm 0,0 UV-I 0 W/m 5,1 C 7,5 C 4,0 km/h (1 Bft) 0,00 %
11.11.2014 07:45 7,6 C 85 % 1011,2 hPa 0,0 l/m 0,0 km/h (0 Bft) S 186 0 min 0,000 mm 0,0 UV-I 0 W/m 5,2 C 7,6 C 0,0 km/h (0 Bft) 0,00 %
11.11.2014 08:00 7,7 C 85 % 1011,1 hPa 0,0 l/m 4,7 km/h (1 Bft) O-SO 115 0 min 0,000 mm 0,0 UV-I 8 W/m 5,3 C 7,7 C 7,9 km/h (2 Bft) 0,00 %
11.11.2014 08:15 7,8 C 85 % 1010,7 hPa 0,0 l/m 3,2 km/h (1 Bft) O-SO 115 0 min 0,000 mm 0,0 UV-I 51 W/m 5,4 C 7,8 C 7,9 km/h (2 Bft) 0,00 %
11.11.2014 08:30 7,9 C 85 % 1011,1 hPa 0,0 l/m 0,0 km/h (0 Bft) S 189 0 min 0,000 mm 0,0 UV-I 87 W/m 5,5 C 7,9 C 0,0 km/h (0 Bft) 0,00 %
11.11.2014 08:45 8,0 C 85 % 1010,7 hPa 0,0 l/m 0,7 km/h (0 Bft) O 80 15 min 0,000 mm 1,0 UV-I 124 W/m 5,6 C 8,0 C 4,0 km/h (1 Bft) 0,00 %
11.11.2014 09:00 8,1 C 85 % 1010,3 hPa 0,0 l/m 5,8 km/h (2 Bft) O-SO 105 15 min 0,000 mm 1,0 UV-I 152 W/m 5,7 C 8,1 C 7,9 km/h (2 Bft) 0,00 %
11.11.2014 09:15 8,1 C 85 % 1010,5 hPa 0,0 l/m 6,8 km/h (2 Bft) O 98 15 min 0,000 mm 1,0 UV-I 158 W/m 5,7 C 7,8 C 7,9 km/h (2 Bft) 0,00 %
11.11.2014 09:30 8,1 C 85 % 1010,4 hPa 0,0 l/m 0,4 km/h (0 Bft) SO 125 15 min 0,000 mm 1,0 UV-I 171 W/m 5,7 C 8,1 C 4,0 km/h (1 Bft) 0,00 %
11.11.2014 09:45 8,2 C 85 % 1010,1 hPa 0,0 l/m 2,2 km/h (1 Bft) O 96 15 min 0,000 mm 1,0 UV-I 242 W/m 5,8 C 8,2 C 4,0 km/h (1 Bft) 0,00 %
11.11.2014 10:00 8,3 C 85 % 1010,0 hPa 0,0 l/m 0,4 km/h (0 Bft) O-NO 63 15 min 0,000 mm 1,0 UV-I 294 W/m 5,9 C 8,3 C 4,0 km/h (1 Bft) 0,00 %
11.11.2014 10:15 8,4 C 84 % 1009,9 hPa 0,0 l/m 5,8 km/h (2 Bft) O 92 15 min 0,000 mm 1,0 UV-I 291 W/m 5,9 C 8,4 C 7,9 km/h (2 Bft) 0,00 %
11.11.2014 10:30 8,7 C 84 % 1009,9 hPa 0,0 l/m 1,4 km/h (1 Bft) O 81 15 min 0,000 mm 1,0 UV-I 270 W/m 6,2 C 8,7 C 4,0 km/h (1 Bft) 0,00 %
11.11.2014 10:45 8,8 C 84 % 1009,6 hPa 0,0 l/m 0,0 km/h (0 Bft) O-SO 111 15 min 0,000 mm 1,0 UV-I 336 W/m 6,2 C 8,8 C 0,0 km/h (0 Bft) 0,00 %
11.11.2014 11:00 8,9 C 84 % 1009,9 hPa 0,0 l/m 0,4 km/h (0 Bft) SO 131 0 min 0,000 mm 1,0 UV-I 179 W/m 6,3 C 8,9 C 4,0 km/h (1 Bft) 0,00 %
11.11.2014 11:15 9,0 C 84 % 1009,6 hPa 0,0 l/m 7,9 km/h (2 Bft) O-SO 103 0 min 0,000 mm 1,0 UV-I 222 W/m 6,4 C 7,9 C 11,9 km/h (2 Bft) 0,00 %
11.11.2014 11:30 9,0 C 84 % 1009,0 hPa 0,0 l/m 0,0 km/h (0 Bft) S 176 15 min 0,000 mm 1,0 UV-I 416 W/m 6,4 C 9,0 C 0,0 km/h (0 Bft) 0,00 %
11.11.2014 11:45 9,2 C 84 % 1008,5 hPa 0,0 l/m 7,9 km/h (2 Bft) O-SO 108 15 min 0,000 mm 1,0 UV-I 461 W/m 6,6 C 8,1 C 11,9 km/h (2 Bft) 0,00 %
11.11.2014 12:00 9,3 C 84 % 1008,4 hPa 0,0 l/m 9,7 km/h (2 Bft) SO 145 15 min 0,000 mm 1,0 UV-I 299 W/m 6,7 C 7,0 C 11,9 km/h (2 Bft) 0,00 %
11.11.2014 12:15 9,3 C 83 % 1008,0 hPa 0,0 l/m 3,2 km/h (1 Bft) S 181 15 min 0,000 mm 1,0 UV-I 383 W/m 6,6 C 9,3 C 7,9 km/h (2 Bft) 0,00 %
11.11.2014 12:30 9,6 C 82 % 1008,0 hPa 0,0 l/m 3,2 km/h (1 Bft) O-SO 103 15 min 0,000 mm 1,0 UV-I 299 W/m 6,7 C 9,6 C 4,0 km/h (1 Bft) 0,00 %
11.11.2014 12:45 9,5 C 82 % 1007,8 hPa 0,0 l/m 0,0 km/h (0 Bft) W-NW 294 15 min 0,000 mm 1,0 UV-I 228 W/m 6,6 C 9,5 C 0,0 km/h (0 Bft) 0,00 %
11.11.2014 13:00 9,7 C 82 % 1007,5 hPa 0,0 l/m 1,8 km/h (1 Bft) SO 129 15 min 0,000 mm 1,0 UV-I 409 W/m 6,8 C 9,7 C 4,0 km/h (1 Bft) 0,00 %
11.11.2014 13:15 10,1 C 81 % 1007,3 hPa 0,0 l/m 6,5 km/h (2 Bft) S 172 15 min 0,000 mm 1,0 UV-I 383 W/m 7,0 C 10,1 C 7,9 km/h (2 Bft) 0,00 %
11.11.2014 13:30 10,1 C 81 % 1007,4 hPa 0,0 l/m 0,7 km/h (0 Bft) SO 141 15 min 0,000 mm 1,0 UV-I 257 W/m 7,0 C 10,1 C 4,0 km/h (1 Bft) 0,00 %
11.11.2014 13:45 10,1 C 81 % 1007,3 hPa 0,0 l/m 0,4 km/h (0 Bft) O-NO 63 15 min 0,000 mm 1,0 UV-I 260 W/m 7,0 C 10,1 C 4,0 km/h (1 Bft) 0,00 %
11.11.2014 14:00 10,2 C 81 % 1007,2 hPa 0,0 l/m 0,0 km/h (0 Bft) O 89 15 min 0,000 mm 1,0 UV-I 196 W/m 7,1 C 10,2 C 0,0 km/h (0 Bft) 0,00 %
11.11.2014 14:15 10,3 C 81 % 1006,9 hPa 0,0 l/m 0,0 km/h (0 Bft) O 99 15 min 0,000 mm 1,0 UV-I 247 W/m 7,2 C 10,3 C 0,0 km/h (0 Bft) 0,00 %
11.11.2014 14:30 10,5 C 80 % 1006,6 hPa 0,0 l/m 0,4 km/h (0 Bft) O-NO 76 15 min 0,000 mm 1,0 UV-I 266 W/m 7,2 C 10,5 C 4,0 km/h (1 Bft) 0,00 %
11.11.2014 14:45 10,6 C 80 % 1006,8 hPa 0,0 l/m 0,4 km/h (0 Bft) O-SO 123 15 min 0,000 mm 1,0 UV-I 209 W/m 7,3 C 10,6 C 4,0 km/h (1 Bft) 0,00 %
11.11.2014 15:00 10,6 C 80 % 1006,3 hPa 0,0 l/m 0,7 km/h (0 Bft) O-SO 106 15 min 0,000 mm 1,0 UV-I 181 W/m 7,3 C 10,6 C 4,0 km/h (1 Bft) 0,00 %
11.11.2014 15:15 10,5 C 81 % 1006,3 hPa 0,0 l/m 0,0 km/h (0 Bft) O-SO 113 15 min 0,000 mm 1,0 UV-I 135 W/m 7,4 C 10,5 C 0,0 km/h (0 Bft) 0,00 %
11.11.2014 15:30 10,5 C 81 % 1006,5 hPa 0,0 l/m 0,0 km/h (0 Bft) O-NO 63 15 min 0,000 mm 0,0 UV-I 92 W/m 7,4 C 10,5 C 0,0 km/h (0 Bft) 0,00 %
11.11.2014 15:45 10,3 C 82 % 1006,5 hPa 0,0 l/m 0,7 km/h (0 Bft) S 173 0 min 0,000 mm 0,0 UV-I 24 W/m 7,4 C 10,3 C 4,0 km/h (1 Bft) 0,00 %
11.11.2014 16:00 10,3 C 82 % 1006,4 hPa 0,0 l/m 0,0 km/h (0 Bft) S 176 0 min 0,000 mm 0,0 UV-I 0 W/m 7,4 C 10,3 C 0,0 km/h (0 Bft) 0,00 %
11.11.2014 16:15 10,2 C 82 % 1006,1 hPa 0,0 l/m 0,0 km/h (0 Bft) N 355 0 min 0,000 mm 0,0 UV-I 0 W/m 7,3 C 10,2 C 0,0 km/h (0 Bft) 0,00 %
11.11.2014 16:30 10,2 C 82 % 1006,1 hPa 0,0 l/m 0,0 km/h (0 Bft) SO 124 0 min 0,000 mm 0,0 UV-I 0 W/m 7,3 C 10,2 C 0,0 km/h (0 Bft) 0,00 %
11.11.2014 16:45 10,0 C 82 % 1006,2 hPa 0,0 l/m 0,0 km/h (0 Bft) S-SW 211 0 min 0,000 mm 0,0 UV-I 0 W/m 7,1 C 10,0 C 0,0 km/h (0 Bft) 0,00 %
11.11.2014 17:00 9,9 C 82 % 1006,1 hPa 0,0 l/m 0,0 km/h (0 Bft) SW 230 0 min 0,000 mm 0,0 UV-I 0 W/m 7,0 C 9,9 C 0,0 km/h (0 Bft) 0,00 %
11.11.2014 17:15 9,8 C 82 % 1006,0 hPa 0,0 l/m 0,0 km/h (0 Bft) S 173 0 min 0,000 mm 0,0 UV-I 0 W/m 6,9 C 9,8 C 0,0 km/h (0 Bft) 0,00 %
11.11.2014 17:30 9,6 C 82 % 1005,8 hPa 0,0 l/m 0,0 km/h (0 Bft) O-SO 118 0 min 0,000 mm 0,0 UV-I 0 W/m 6,7 C 9,6 C 0,0 km/h (0 Bft) 0,00 %
11.11.2014 17:45 9,5 C 83 % 1006,0 hPa 0,0 l/m 0,0 km/h (0 Bft) SW 233 0 min 0,000 mm 0,0 UV-I 0 W/m 6,8 C 9,5 C 0,0 km/h (0 Bft) 0,00 %
11.11.2014 18:00 9,3 C 83 % 1005,7 hPa 0,0 l/m 0,4 km/h (0 Bft) NO 46 0 min 0,000 mm 0,0 UV-I 0 W/m 6,6 C 9,3 C 4,0 km/h (1 Bft) 0,00 %
11.11.2014 18:15 9,3 C 83 % 1005,7 hPa 0,0 l/m 0,0 km/h (0 Bft) S 178 0 min 0,000 mm 0,0 UV-I 0 W/m 6,6 C 9,3 C 0,0 km/h (0 Bft) 0,00 %
11.11.2014 18:30 9,2 C 83 % 1005,7 hPa 0,0 l/m 0,0 km/h (0 Bft) S 173 0 min 0,000 mm 0,0 UV-I 0 W/m 6,5 C 9,2 C 0,0 km/h (0 Bft) 0,00 %
11.11.2014 18:45 8,8 C 83 % 1005,6 hPa 0,0 l/m 0,0 km/h (0 Bft) W-SW 252 0 min 0,000 mm 0,0 UV-I 0 W/m 6,1 C 8,8 C 0,0 km/h (0 Bft) 0,00 %
11.11.2014 19:00 8,3 C 83 % 1005,6 hPa 0,0 l/m 0,0 km/h (0 Bft) S 172 0 min 0,000 mm 0,0 UV-I 0 W/m 5,6 C 8,3 C 0,0 km/h (0 Bft) 0,00 %
11.11.2014 19:15 8,4 C 84 % 1005,5 hPa 0,0 l/m 0,0 km/h (0 Bft) S 175 0 min 0,000 mm 0,0 UV-I 0 W/m 5,9 C 8,4 C 0,0 km/h (0 Bft) 0,00 %
11.11.2014 19:30 8,0 C 84 % 1005,4 hPa 0,0 l/m 0,0 km/h (0 Bft) W-SW 256 0 min 0,000 mm 0,0 UV-I 0 W/m 5,5 C 8,0 C 0,0 km/h (0 Bft) 0,00 %
11.11.2014 19:45 7,5 C 84 % 1005,6 hPa 0,0 l/m 0,0 km/h (0 Bft) S-SW 196 0 min 0,000 mm 0,0 UV-I 0 W/m 5,0 C 7,5 C 0,0 km/h (0 Bft) 0,00 %
11.11.2014 20:00 7,3 C 85 % 1005,6 hPa 0,0 l/m 0,0 km/h (0 Bft) S-SW 209 0 min 0,000 mm 0,0 UV-I 0 W/m 4,9 C 7,3 C 0,0 km/h (0 Bft) 0,00 %
11.11.2014 20:15 7,3 C 85 % 1005,7 hPa 0,0 l/m 0,0 km/h (0 Bft) S 175 0 min 0,000 mm 0,0 UV-I 0 W/m 4,9 C 7,3 C 0,0 km/h (0 Bft) 0,00 %
11.11.2014 20:30 6,9 C 84 % 1005,8 hPa 0,0 l/m 0,0 km/h (0 Bft) W-SW 256 0 min 0,000 mm 0,0 UV-I 0 W/m 4,4 C 6,9 C 0,0 km/h (0 Bft) 0,00 %
11.11.2014 20:45 6,7 C 85 % 1005,7 hPa 0,0 l/m 0,0 km/h (0 Bft) W-SW 238 0 min 0,000 mm 0,0 UV-I 0 W/m 4,4 C 6,7 C 0,0 km/h (0 Bft) 0,00 %
11.11.2014 21:00 6,7 C 85 % 1005,6 hPa 0,0 l/m 0,0 km/h (0 Bft) W-SW 256 0 min 0,000 mm 0,0 UV-I 0 W/m 4,4 C 6,7 C 0,0 km/h (0 Bft) 0,00 %
11.11.2014 21:15 6,4 C 85 % 1005,9 hPa 0,0 l/m 0,0 km/h (0 Bft) W-SW 253 0 min 0,000 mm 0,0 UV-I 0 W/m 4,1 C 6,4 C 0,0 km/h (0 Bft) 0,00 %
11.11.2014 21:30 6,5 C 85 % 1005,9 hPa 0,0 l/m 0,0 km/h (0 Bft) SO 135 0 min 0,000 mm 0,0 UV-I 0 W/m 4,2 C 6,5 C 0,0 km/h (0 Bft) 0,00 %
11.11.2014 21:45 6,7 C 85 % 1005,8 hPa 0,0 l/m 0,0 km/h (0 Bft) S-SW 209 0 min 0,000 mm 0,0 UV-I 0 W/m 4,4 C 6,7 C 0,0 km/h (0 Bft) 0,00 %
11.11.2014 22:00 6,6 C 85 % 1005,5 hPa 0,0 l/m 0,0 km/h (0 Bft) W-SW 251 0 min 0,000 mm 0,0 UV-I 0 W/m 4,3 C 6,6 C 0,0 km/h (0 Bft) 0,00 %
11.11.2014 22:15 6,6 C 85 % 1005,4 hPa 0,0 l/m 0,0 km/h (0 Bft) W-SW 255 0 min 0,000 mm 0,0 UV-I 0 W/m 4,3 C 6,6 C 0,0 km/h (0 Bft) 0,00 %
11.11.2014 22:30 6,5 C 85 % 1005,2 hPa 0,0 l/m 0,0 km/h (0 Bft) S 180 0 min 0,000 mm 0,0 UV-I 0 W/m 4,2 C 6,5 C 0,0 km/h (0 Bft) 0,00 %
11.11.2014 22:45 6,6 C 85 % 1005,2 hPa 0,0 l/m 0,0 km/h (0 Bft) S-SW 208 0 min 0,000 mm 0,0 UV-I 0 W/m 4,3 C 6,6 C 0,0 km/h (0 Bft) 0,00 %
11.11.2014 23:00 6,5 C 85 % 1005,2 hPa 0,0 l/m 0,0 km/h (0 Bft) W-SW 252 0 min 0,000 mm 0,0 UV-I 0 W/m 4,2 C 6,5 C 0,0 km/h (0 Bft) 0,00 %
11.11.2014 23:15 6,3 C 85 % 1005,0 hPa 0,0 l/m 0,0 km/h (0 Bft) S 191 0 min 0,000 mm 0,0 UV-I 0 W/m 4,0 C 6,3 C 0,0 km/h (0 Bft) 0,00 %
11.11.2014 23:30 6,7 C 85 % 1004,8 hPa 0,0 l/m 0,0 km/h (0 Bft) S 179 0 min 0,000 mm 0,0 UV-I 0 W/m 4,4 C 6,7 C 0,0 km/h (0 Bft) 0,00 %
11.11.2014 23:45 7,1 C 85 % 1004,7 hPa 0,0 l/m 0,0 km/h (0 Bft) S-SW 212 0 min 0,000 mm 0,0 UV-I 0 W/m 4,8 C 7,1 C 0,0 km/h (0 Bft) 0,00 %
_ Min-Zeit 23:15 14:30 23:45 - 00:00 - - - - - - 23:15 23:15 00:00 00:00
Minimum _ 6,3 C 80 % 1004,7 hPa - 0,0 km/h (0 Bft) - - - - - - 4,0 C 6,3 C 0,0 km/h (0 Bft) 0,00 %
_ Max-Zeit 14:45 00:00 01:00 00:00 12:00 - - 08:45 00:00 08:45 11:45 15:15 14:45 11:15 00:00
Maximum _ 10,6 C 85 % 1013,0 hPa 0,0 l/m 9,7 km/h
SO (2 Bft)
- - 15 min 0,000 mm 1,0 UV-I 461 W/m 7,4 C 10,6 C 11,9 km/h
O-SO (2 Bft)
0,00 %
Durchschnitt _ 8,1 C 84 % 1008,7 hPa #0,0 l/m 0,9 km/h (0 Bft) O-SO - #6:30 h #0,000 mm 1,0 UV-I 229 W/m 5,5 C 8,1 C 2,0 km/h (1 Bft) 0,00 %